This is the latest recevied weather packets stored in our database for station/object F4IKI-10. If no packets are shown the sender has not sent any weather packets the latest 10 day(s).
| Time | Temp. | Humidity | Pressure | Rain* | Wind** | Luminosity | Snow |
|---|---|---|---|---|---|---|---|
| 1777479103 | 22.22° C | 66% | 1012.6 hPa | - | - | - | - |
| 1777478198 | 22.22° C | 66% | 1012.6 hPa | - | - | - | - |
| 1777477298 | 21.67° C | 66% | 1012.5 hPa | - | - | - | - |
| 1777476398 | 20.56° C | 70% | 1012.5 hPa | - | - | - | - |
| 1777475498 | 20.56° C | 70% | 1012.7 hPa | - | - | - | - |
| 1777474598 | 20.56° C | 70% | 1012.8 hPa | - | - | - | - |
| 1777473698 | 20.56° C | 70% | 1012.7 hPa | - | - | - | - |
| 1777472797 | 20.56° C | 71% | 1012.7 hPa | - | - | - | - |
| 1777471897 | 20.56° C | 71% | 1012.7 hPa | - | - | - | - |
| 1777470997 | 20.56° C | 71% | 1012.9 hPa | - | - | - | - |
| 1777470097 | 20° C | 73% | 1012.9 hPa | - | - | - | - |
| 1777469197 | 20° C | 73% | 1013 hPa | - | - | - | - |
| 1777468297 | 20° C | 72% | 1012.8 hPa | - | - | - | - |
| 1777467397 | 20.56° C | 69% | 1012.9 hPa | - | - | - | - |
| 1777466497 | 20° C | 69% | 1012.8 hPa | - | - | - | - |
| 1777465597 | 20° C | 67% | 1012.6 hPa | - | - | - | - |
| 1777464696 | 20° C | 67% | 1012.6 hPa | - | - | - | - |
| 1777463796 | 20° C | 67% | 1012.8 hPa | - | - | - | - |
| 1777462896 | 20° C | 67% | 1012.8 hPa | - | - | - | - |
| 1777461996 | 20° C | 67% | 1013 hPa | - | - | - | - |
| 1777461096 | 20° C | 67% | 1013 hPa | - | - | - | - |
| 1777460196 | 20° C | 66% | 1013 hPa | - | - | - | - |
| 1777459296 | 19.44° C | 66% | 1012.9 hPa | - | - | - | - |
| 1777458396 | 19.44° C | 65% | 1012.8 hPa | - | - | - | - |
| 1777457496 | 18.89° C | 66% | 1012.8 hPa | - | - | - | - |
* Rain since midnight (hover to see other rain measurements)
** Current wind speed in m/s (hover to see current wind gust speed)